createdAt,value
2018-04-23T00:00:44.178Z,6.15
2018-04-23T00:03:12.361Z,5.20
2018-04-23T00:05:40.359Z,5.87
2018-04-23T00:08:08.544Z,4.55
2018-04-23T00:10:36.642Z,5.35
2018-04-23T00:13:04.837Z,5.82
2018-04-23T00:15:32.940Z,5.45
2018-04-23T00:18:01.242Z,5.20
2018-04-23T00:20:29.524Z,5.78
2018-04-23T00:22:57.921Z,5.40
2018-04-23T00:25:26.034Z,5.62
2018-04-23T00:27:54.158Z,5.57
2018-04-23T00:30:22.501Z,5.57
2018-04-23T00:32:50.708Z,6.30
2018-04-23T00:35:18.786Z,4.80
2018-04-23T00:37:46.982Z,5.70
2018-04-23T00:40:15.189Z,5.80
2018-04-23T00:42:43.369Z,5.80
2018-04-23T00:45:11.365Z,5.25
2018-04-23T00:47:39.559Z,6.00
2018-04-23T00:50:07.765Z,5.80
2018-04-23T00:52:35.952Z,5.60
2018-04-23T00:55:04.048Z,5.45
2018-04-23T00:57:32.231Z,5.22
2018-04-23T01:00:00.426Z,5.72
2018-04-23T01:02:28.632Z,5.80
2018-04-23T01:04:56.927Z,5.95
2018-04-23T01:07:25.022Z,6.70
2018-04-23T01:09:53.020Z,5.43
2018-04-23T01:12:21.299Z,5.90
2018-04-23T01:14:49.395Z,6.22
2018-04-23T01:17:17.596Z,6.00
2018-04-23T01:19:45.684Z,6.15
2018-04-23T01:22:13.894Z,5.87
2018-04-23T01:24:42.069Z,5.62
2018-04-23T01:27:10.165Z,5.50
2018-04-23T01:29:38.250Z,6.18
2018-04-23T01:32:06.359Z,5.65
2018-04-23T01:34:34.548Z,5.55
2018-04-23T01:37:02.845Z,5.80
2018-04-23T01:39:31.040Z,6.18
2018-04-23T01:41:59.236Z,6.20
2018-04-23T01:44:27.623Z,6.05
2018-04-23T01:46:55.713Z,5.85
2018-04-23T01:49:23.909Z,6.12
2018-04-23T01:51:52.005Z,6.18
2018-04-23T01:54:20.035Z,6.10
2018-04-23T01:56:47.989Z,5.93
2018-04-23T01:59:16.197Z,7.00
2018-04-23T02:01:44.379Z,6.40
2018-04-23T02:04:12.559Z,7.12
2018-04-23T02:06:40.649Z,6.53
2018-04-23T02:09:08.857Z,7.15
2018-04-23T02:11:36.946Z,6.45
2018-04-23T02:14:05.246Z,5.90
2018-04-23T02:16:33.541Z,5.95
2018-04-23T02:19:01.845Z,6.70
2018-04-23T02:21:29.924Z,6.70
2018-04-23T02:23:58.123Z,6.47
2018-04-23T02:26:26.217Z,6.40
2018-04-23T02:28:54.508Z,7.22
2018-04-23T02:31:22.716Z,6.28
2018-04-23T02:33:50.909Z,6.43
2018-04-23T02:36:19.083Z,7.05
2018-04-23T02:38:47.110Z,6.55
2018-04-23T02:41:15.073Z,7.25
2018-04-23T02:43:43.272Z,6.40
2018-04-23T02:46:11.353Z,6.47
2018-04-23T02:48:39.558Z,6.45
2018-04-23T02:51:07.645Z,6.90
2018-04-23T02:53:35.943Z,7.10
2018-04-23T02:56:04.142Z,7.18
2018-04-23T02:58:32.429Z,7.00
2018-04-23T03:01:00.520Z,6.10
2018-04-23T03:03:28.818Z,6.65
2018-04-23T03:05:57.119Z,6.78
2018-04-23T03:08:25.405Z,7.87
2018-04-23T03:10:53.503Z,7.32
2018-04-23T03:13:21.699Z,6.95
2018-04-23T03:15:49.800Z,8.23
2018-04-23T03:18:17.979Z,7.55
2018-04-23T03:20:46.187Z,6.82
2018-04-23T03:23:14.204Z,7.40
2018-04-23T03:25:42.260Z,7.15
2018-04-23T03:28:10.465Z,9.05
2018-04-23T03:30:38.557Z,10.23
2018-04-23T03:33:06.950Z,8.70
2018-04-23T03:35:35.347Z,7.35
2018-04-23T03:38:03.652Z,7.95
2018-04-23T03:40:31.738Z,8.13
2018-04-23T03:43:00.878Z,8.05
2018-04-23T03:45:29.157Z,7.30
2018-04-23T03:47:57.449Z,7.45
2018-04-23T03:50:25.637Z,14.70
2018-04-23T03:52:54.663Z,7.70
2018-04-23T03:55:22.840Z,8.35
2018-04-23T03:57:51.037Z,7.03
2018-04-23T04:00:19.243Z,7.95
2018-04-23T04:02:47.228Z,8.95
2018-04-23T04:05:15.427Z,8.10
2018-04-23T04:07:43.518Z,7.55
2018-04-23T04:10:11.721Z,7.80
2018-04-23T04:12:39.899Z,8.52
2018-04-23T04:15:08.091Z,7.30
2018-04-23T04:17:36.191Z,7.50
2018-04-23T04:20:04.483Z,7.18
2018-04-23T04:22:32.685Z,8.05
2018-04-23T04:25:01.075Z,9.20
2018-04-23T04:27:29.261Z,7.65
2018-04-23T04:29:57.468Z,8.90
2018-04-23T04:32:25.649Z,8.80
2018-04-23T04:34:53.844Z,7.60
2018-04-23T04:37:21.939Z,7.90
2018-04-23T04:39:50.146Z,7.87
2018-04-23T04:42:18.138Z,8.38
2018-04-23T04:44:46.323Z,6.85
2018-04-23T04:47:14.343Z,8.50
2018-04-23T04:49:42.505Z,8.30
2018-04-23T04:52:10.697Z,9.90
2018-04-23T04:54:39.000Z,10.00
2018-04-23T04:57:07.102Z,9.18
2018-04-23T04:59:35.292Z,8.82
2018-04-23T05:02:03.579Z,10.13
2018-04-23T05:04:31.779Z,8.40
2018-04-23T05:06:59.867Z,8.10
2018-04-23T05:09:28.076Z,8.30
2018-04-23T05:11:56.149Z,7.15
2018-04-23T05:14:24.352Z,8.43
2018-04-23T05:16:52.445Z,8.10
2018-04-23T05:19:20.632Z,8.38
2018-04-23T05:21:48.823Z,17.60
2018-04-23T05:24:17.126Z,12.20
2018-04-23T05:26:45.210Z,9.55
2018-04-23T05:29:13.403Z,8.70
2018-04-23T05:31:41.525Z,8.65
2018-04-23T05:34:09.695Z,9.07
2018-04-23T05:36:37.890Z,10.40
2018-04-23T05:39:06.091Z,8.15
2018-04-23T05:41:34.482Z,9.50
2018-04-23T05:44:02.739Z,10.00
2018-04-23T05:46:30.877Z,9.88
2018-04-23T05:48:59.062Z,10.57
2018-04-23T05:51:27.269Z,10.23
2018-04-23T05:53:55.468Z,10.70
2018-04-23T05:56:23.543Z,9.60
2018-04-23T05:58:51.754Z,10.15
2018-04-23T06:01:19.955Z,10.43
2018-04-23T06:03:48.142Z,10.05
2018-04-23T06:06:16.337Z,11.18
2018-04-23T06:08:44.571Z,10.10
2018-04-23T06:11:12.822Z,10.07
2018-04-23T06:13:40.939Z,9.93
2018-04-23T06:16:09.007Z,10.57
2018-04-23T06:18:37.107Z,9.40
2018-04-23T06:21:05.485Z,9.93
2018-04-23T06:23:33.576Z,10.32
2018-04-23T06:26:01.780Z,8.57
2018-04-23T06:28:30.095Z,9.98
2018-04-23T06:30:58.276Z,9.32
2018-04-23T06:33:26.462Z,9.43
2018-04-23T06:35:54.654Z,9.10
2018-04-23T06:38:22.859Z,8.77
2018-04-23T06:40:51.042Z,9.23
2018-04-23T06:43:19.255Z,8.88
2018-04-23T06:45:47.445Z,8.13
2018-04-23T06:48:15.529Z,8.73
2018-04-23T06:50:43.722Z,8.57
2018-04-23T06:53:11.915Z,8.27
2018-04-23T06:55:40.114Z,8.20
2018-04-23T06:58:08.204Z,7.03
2018-04-23T07:00:36.405Z,7.50
2018-04-23T07:03:04.584Z,6.80
2018-04-23T07:05:32.786Z,7.20
2018-04-23T07:08:00.885Z,6.72
2018-04-23T07:10:29.122Z,6.35
2018-04-23T07:12:57.265Z,6.83
2018-04-23T07:15:25.465Z,6.40
2018-04-23T07:17:53.444Z,7.33
2018-04-23T07:20:21.645Z,8.80
2018-04-23T07:22:49.745Z,8.50
2018-04-23T07:25:17.924Z,8.30
2018-04-23T07:27:46.025Z,8.13
2018-04-23T07:30:14.235Z,7.73
2018-04-23T07:32:42.313Z,7.70
2018-04-23T07:35:10.613Z,8.00
2018-04-23T07:37:38.846Z,7.37
2018-04-23T07:40:07.226Z,7.70
2018-04-23T07:42:35.309Z,7.27
2018-04-23T07:45:03.563Z,7.47
2018-04-23T07:47:31.684Z,7.17
2018-04-23T07:49:59.886Z,6.10
2018-04-23T07:52:28.070Z,6.03
2018-04-23T07:54:56.504Z,5.77
2018-04-23T07:57:24.664Z,6.10
2018-04-23T07:59:53.019Z,5.63
2018-04-23T08:02:21.054Z,5.50
2018-04-23T08:04:49.331Z,5.63
2018-04-23T08:07:17.443Z,5.00
2018-04-23T08:09:45.476Z,5.00
2018-04-23T08:12:14.464Z,5.03
2018-04-23T08:14:42.775Z,5.17
2018-04-23T08:17:10.975Z,5.10
2018-04-23T08:19:39.057Z,5.17
2018-04-23T08:22:07.235Z,4.93
2018-04-23T08:24:35.135Z,5.07
2018-04-23T08:27:03.195Z,5.00
2018-04-23T08:29:31.240Z,4.07
2018-04-23T08:31:59.653Z,4.20
2018-04-23T08:34:27.895Z,4.70
2018-04-23T08:36:56.097Z,4.33
2018-04-23T08:39:24.376Z,5.13
2018-04-23T08:41:52.556Z,4.20
2018-04-23T08:44:20.677Z,4.27
2018-04-23T08:46:48.856Z,3.63
2018-04-23T08:49:16.957Z,3.90
2018-04-23T08:51:45.177Z,3.87
2018-04-23T08:54:13.436Z,4.20
2018-04-23T08:56:41.637Z,3.90
2018-04-23T08:59:09.821Z,3.90
2018-04-23T09:01:38.041Z,4.20
2018-04-23T09:04:06.218Z,4.23
2018-04-23T09:06:34.417Z,4.67
2018-04-23T09:09:02.339Z,4.33
2018-04-23T09:11:30.597Z,5.40
2018-04-23T09:13:58.697Z,5.30
2018-04-23T09:16:26.877Z,5.43
2018-04-23T09:18:54.977Z,5.07
2018-04-23T09:21:23.278Z,5.10
2018-04-23T09:23:51.357Z,5.60
2018-04-23T09:26:19.557Z,5.73
2018-04-23T09:28:47.657Z,5.30
2018-04-23T09:31:15.856Z,5.73
2018-04-23T09:33:43.936Z,4.90
2018-04-23T09:36:15.788Z,4.87
2018-04-23T09:38:45.961Z,6.10
2018-04-23T09:41:14.283Z,5.80
2018-04-23T09:43:43.263Z,6.20
2018-04-23T09:46:11.463Z,4.80
2018-04-23T09:48:39.764Z,5.37
2018-04-23T09:51:07.952Z,5.30
2018-04-23T09:53:36.145Z,5.87
2018-04-23T09:56:04.346Z,5.10
2018-04-23T09:58:32.679Z,5.57
2018-04-23T10:01:00.924Z,5.50
2018-04-23T10:03:29.032Z,5.63
2018-04-23T10:05:57.424Z,5.40
2018-04-23T10:08:25.624Z,5.97
2018-04-23T10:10:53.804Z,5.57
2018-04-23T10:13:21.909Z,5.70
2018-04-23T10:15:50.089Z,5.43
2018-04-23T10:18:18.089Z,5.40
2018-04-23T10:20:46.287Z,5.30
2018-04-23T10:23:14.287Z,5.03
2018-04-23T10:25:42.467Z,5.73
2018-04-23T10:28:10.567Z,4.57
2018-04-23T10:30:38.649Z,5.97
2018-04-23T10:33:06.847Z,5.80
2018-04-23T10:35:34.927Z,6.20
2018-04-23T10:38:03.128Z,5.23
2018-04-23T10:40:31.228Z,5.80
2018-04-23T10:42:59.408Z,5.80
2018-04-23T10:45:27.560Z,5.10
2018-04-23T10:47:55.807Z,5.17
2018-04-23T10:50:23.908Z,5.70
2018-04-23T10:52:52.079Z,5.20
2018-04-23T10:55:20.187Z,6.17
2018-04-23T10:57:48.493Z,5.43
2018-04-23T11:00:16.570Z,5.73
2018-04-23T11:02:44.759Z,5.40
2018-04-23T11:05:12.859Z,5.87
2018-04-23T11:07:40.958Z,5.60
2018-04-23T11:10:08.830Z,5.20
2018-04-23T11:12:37.035Z,5.53
2018-04-23T11:15:05.133Z,6.17
2018-04-23T11:17:33.313Z,5.50
2018-04-23T11:20:01.398Z,5.40
2018-04-23T11:22:29.621Z,6.13
2018-04-23T11:24:57.699Z,5.70
2018-04-23T11:27:25.896Z,5.70
2018-04-23T11:29:54.073Z,5.60
2018-04-23T11:32:22.273Z,6.37
2018-04-23T11:34:50.481Z,6.83
2018-04-23T11:37:18.662Z,6.53
2018-04-23T11:39:46.870Z,6.00
2018-04-23T11:42:15.067Z,5.67
2018-04-23T11:44:43.166Z,5.80
2018-04-23T11:47:11.361Z,6.20
2018-04-23T11:49:39.550Z,6.10
2018-04-23T11:52:07.736Z,6.43
2018-04-23T11:54:35.658Z,5.40
2018-04-23T11:57:03.811Z,5.30
2018-04-23T11:59:31.910Z,5.47
2018-04-23T12:02:00.099Z,5.60
2018-04-23T12:04:28.234Z,5.20
2018-04-23T12:06:56.474Z,4.97
2018-04-23T12:09:24.587Z,5.00
2018-04-23T12:11:52.877Z,4.90
2018-04-23T12:14:20.964Z,5.60
2018-04-23T12:16:49.164Z,7.53
2018-04-23T12:19:17.264Z,5.20
2018-04-23T12:21:45.423Z,5.30
2018-04-23T12:24:13.550Z,4.50
2018-04-23T12:26:41.643Z,4.50
2018-04-23T12:29:09.723Z,5.27
2018-04-23T12:31:37.829Z,4.10
2018-04-23T12:34:05.923Z,4.43
2018-04-23T12:36:34.112Z,4.20
2018-04-23T12:39:02.204Z,4.13
2018-04-23T12:41:30.403Z,4.53
2018-04-23T12:43:58.583Z,4.80
2018-04-23T12:46:26.691Z,4.50
2018-04-23T12:48:54.883Z,4.77
2018-04-23T12:51:22.963Z,5.30
2018-04-23T12:53:51.057Z,4.70
2018-04-23T12:56:19.164Z,5.10
2018-04-23T12:58:47.343Z,4.67
2018-04-23T13:01:15.424Z,4.60
2018-04-23T13:03:43.564Z,4.73
2018-04-23T13:06:11.723Z,5.07
2018-04-23T13:08:39.928Z,4.90
2018-04-23T13:11:08.213Z,4.97
2018-04-23T13:13:36.405Z,4.40
2018-04-23T13:16:04.503Z,5.00
2018-04-23T13:18:32.704Z,5.40
2018-04-23T13:21:00.788Z,4.73
2018-04-23T13:23:28.908Z,4.60
2018-04-23T13:25:56.928Z,4.53
2018-04-23T13:28:25.167Z,4.93
2018-04-23T13:30:53.268Z,4.70
2018-04-23T13:33:21.460Z,4.57
2018-04-23T13:35:49.550Z,4.50
2018-04-23T13:38:17.770Z,5.00
2018-04-23T13:40:46.130Z,4.97
2018-04-23T13:43:14.331Z,4.67
2018-04-23T13:45:42.450Z,4.43
2018-04-23T13:48:10.630Z,4.73
2018-04-23T13:50:38.726Z,5.00
2018-04-23T13:53:06.908Z,6.00
2018-04-23T13:55:35.044Z,6.00
2018-04-23T13:58:03.285Z,5.07
2018-04-23T14:00:31.385Z,5.40
2018-04-23T14:02:59.585Z,6.17
2018-04-23T14:05:27.689Z,6.33
2018-04-23T14:07:55.897Z,6.47
2018-04-23T14:10:23.859Z,8.17
2018-04-23T14:12:52.161Z,12.17
2018-04-23T14:15:20.460Z,8.07
2018-04-23T14:17:48.768Z,7.20
2018-04-23T14:20:17.057Z,6.33
2018-04-23T14:22:45.743Z,7.97
2018-04-23T14:25:13.843Z,7.80
2018-04-23T14:27:42.043Z,7.70
2018-04-23T14:30:10.242Z,6.97
2018-04-23T14:32:38.418Z,8.30
2018-04-23T14:35:06.522Z,8.27
2018-04-23T14:37:34.815Z,7.30
2018-04-23T14:40:02.916Z,7.37
2018-04-23T14:42:30.991Z,9.30
2018-04-23T14:44:59.084Z,8.53
2018-04-23T14:47:27.190Z,8.40
2018-04-23T14:49:55.379Z,9.00
2018-04-23T14:52:23.327Z,7.90
2018-04-23T14:54:51.575Z,8.60
2018-04-23T14:57:19.666Z,8.40
2018-04-23T14:59:47.847Z,8.50
2018-04-23T15:02:16.047Z,8.33
2018-04-23T15:04:44.247Z,7.77
2018-04-23T15:09:49.003Z,7.77
2018-04-23T15:12:17.096Z,7.53
2018-04-23T15:14:45.302Z,7.93
2018-04-23T15:17:13.388Z,8.87
2018-04-23T15:19:41.508Z,8.80
2018-04-23T15:22:09.671Z,8.07
2018-04-23T15:24:37.857Z,7.23
2018-04-23T15:27:05.962Z,7.73
2018-04-23T15:29:34.162Z,8.77
2018-04-23T15:32:02.237Z,7.97
2018-04-23T15:34:30.547Z,8.03
2018-04-23T15:36:58.941Z,8.27
2018-04-23T15:39:27.245Z,8.63
2018-04-23T15:41:55.536Z,7.93
2018-04-23T15:44:23.826Z,8.70
2018-04-23T15:46:52.035Z,8.60
2018-04-23T15:49:20.336Z,9.90
2018-04-23T15:51:48.620Z,9.57
2018-04-23T15:54:16.820Z,9.53
2018-04-23T15:56:45.102Z,10.90
2018-04-23T15:59:13.312Z,9.17
2018-04-23T16:01:41.518Z,7.50
2018-04-23T16:04:09.702Z,8.43
2018-04-23T16:06:38.093Z,9.57
2018-04-23T16:09:06.293Z,9.57
2018-04-23T16:11:34.389Z,7.43
2018-04-23T16:14:02.689Z,7.20
2018-04-23T16:16:31.079Z,8.50
2018-04-23T16:18:59.277Z,8.87
2018-04-23T16:21:27.466Z,8.40
2018-04-23T16:23:55.657Z,7.60
2018-04-23T16:26:23.959Z,8.37
2018-04-23T16:28:52.163Z,8.13
2018-04-23T16:31:20.338Z,7.63
2018-04-23T16:33:48.543Z,8.90
2018-04-23T16:36:16.631Z,8.57
2018-04-23T16:38:44.831Z,7.33
2018-04-23T16:41:13.020Z,8.20
2018-04-23T16:43:41.111Z,8.23
2018-04-23T16:46:09.111Z,7.80
2018-04-23T16:48:37.291Z,6.90
2018-04-23T16:51:05.387Z,7.30
2018-04-23T16:53:34.704Z,9.80
2018-04-23T16:56:02.787Z,12.63
2018-04-23T16:58:30.888Z,10.63
2018-04-23T17:00:59.086Z,8.53
2018-04-23T17:03:27.293Z,8.20
2018-04-23T17:05:55.490Z,8.27
2018-04-23T17:08:23.679Z,7.43
2018-04-23T17:10:51.969Z,7.40
2018-04-23T17:13:20.166Z,7.30
2018-04-23T17:15:48.353Z,6.97
2018-04-23T17:18:16.447Z,7.60
2018-04-23T17:20:44.541Z,7.33
2018-04-23T17:23:12.729Z,7.20
2018-04-23T17:25:40.954Z,7.23
2018-04-23T17:28:08.877Z,5.83
2018-04-23T17:30:37.020Z,6.73
2018-04-23T17:33:05.317Z,6.80
2018-04-23T17:35:33.614Z,6.73
2018-04-23T17:38:01.903Z,6.20
2018-04-23T17:40:30.194Z,6.93
2018-04-23T17:42:58.610Z,7.70
2018-04-23T17:45:27.026Z,6.43
2018-04-23T17:47:55.513Z,7.40
2018-04-23T17:50:23.800Z,7.22
2018-04-23T17:52:52.027Z,7.45
2018-04-23T17:55:20.278Z,6.80
2018-04-23T17:57:48.598Z,7.65
2018-04-23T18:00:17.298Z,7.97
2018-04-23T18:02:45.491Z,7.78
2018-04-23T18:05:13.610Z,8.40
2018-04-23T18:07:42.895Z,8.40
2018-04-23T18:10:12.222Z,8.35
2018-04-23T18:12:40.312Z,7.35
2018-04-23T18:15:08.509Z,7.65
2018-04-23T18:17:36.814Z,8.48
2018-04-23T18:20:05.189Z,7.22
2018-04-23T18:22:33.288Z,8.23
2018-04-23T18:25:01.591Z,8.65
2018-04-23T18:27:29.675Z,8.95
2018-04-23T18:29:58.486Z,8.18
2018-04-23T18:32:26.588Z,7.78
2018-04-23T18:34:54.883Z,7.68
2018-04-23T18:37:23.067Z,8.10
2018-04-23T18:39:51.758Z,8.05
2018-04-23T18:42:19.818Z,8.90
2018-04-23T18:44:47.871Z,7.43
2018-04-23T18:47:17.485Z,9.20
2018-04-23T18:49:45.687Z,9.40
2018-04-23T18:52:13.758Z,7.28
2018-04-23T18:54:41.866Z,7.90
2018-04-23T18:57:10.057Z,8.50
2018-04-23T18:59:38.255Z,8.48
2018-04-23T19:02:06.349Z,7.35
2018-04-23T19:04:34.631Z,7.60
2018-04-23T19:07:02.760Z,8.32
2018-04-23T19:09:30.936Z,7.60
2018-04-23T19:11:59.123Z,7.53
2018-04-23T19:14:27.202Z,8.00
2018-04-23T19:16:56.321Z,7.43
2018-04-23T19:19:24.421Z,6.90
2018-04-23T19:21:52.506Z,8.13
2018-04-23T19:24:20.607Z,6.87
2018-04-23T19:26:48.789Z,7.47
2018-04-23T19:29:16.995Z,7.68
2018-04-23T19:31:45.189Z,7.35
2018-04-23T19:34:13.381Z,6.68
2018-04-23T19:36:41.573Z,7.47
2018-04-23T19:39:09.651Z,8.32
2018-04-23T19:41:37.851Z,8.00
2018-04-23T19:44:05.959Z,7.97
2018-04-23T19:46:34.251Z,6.97
2018-04-23T19:49:02.353Z,7.62
2018-04-23T19:51:30.632Z,8.52
2018-04-23T19:53:58.731Z,7.95
2018-04-23T19:56:26.814Z,7.25
2018-04-23T19:58:54.916Z,8.43
2018-04-23T20:01:23.112Z,9.00
2018-04-23T20:03:51.306Z,9.55
2018-04-23T20:06:20.497Z,8.85
2018-04-23T20:08:48.618Z,10.00
2018-04-23T20:11:16.800Z,9.00
2018-04-23T20:13:44.997Z,9.50
2018-04-23T20:16:13.087Z,10.77
2018-04-23T20:18:41.189Z,9.25
2018-04-23T20:21:09.280Z,10.00
2018-04-23T20:23:37.673Z,9.50
2018-04-23T20:26:05.764Z,8.75
2018-04-23T20:28:33.860Z,8.15
2018-04-23T20:31:02.160Z,8.68
2018-04-23T20:33:30.321Z,8.52
2018-04-23T20:35:58.513Z,9.13
2018-04-23T20:38:26.656Z,9.45
2018-04-23T20:40:54.824Z,8.88
2018-04-23T20:43:22.920Z,9.93
2018-04-23T20:45:51.124Z,9.50
2018-04-23T20:48:19.409Z,8.43
2018-04-23T20:50:47.572Z,9.05
2018-04-23T20:53:15.700Z,7.90
2018-04-23T20:55:44.093Z,8.50
2018-04-23T20:58:12.193Z,8.52
2018-04-23T21:00:40.385Z,9.43
2018-04-23T21:03:08.484Z,8.57
2018-04-23T21:05:36.773Z,8.93
2018-04-23T21:08:05.077Z,9.00
2018-04-23T21:10:33.273Z,9.18
2018-04-23T21:13:01.561Z,10.27
2018-04-23T21:15:29.646Z,9.95
2018-04-23T21:17:57.754Z,10.10
2018-04-23T21:20:25.947Z,14.15
2018-04-23T21:22:54.145Z,10.60
2018-04-23T21:25:22.732Z,8.68
2018-04-23T21:27:50.835Z,8.38
2018-04-23T21:30:18.923Z,8.70
2018-04-23T21:32:47.126Z,8.02
2018-04-23T21:35:15.308Z,7.60
2018-04-23T21:37:43.624Z,7.70
2018-04-23T21:40:11.803Z,8.73
2018-04-23T21:42:40.096Z,8.30
2018-04-23T21:45:08.403Z,8.45
2018-04-23T21:47:36.593Z,8.90
2018-04-23T21:50:04.887Z,8.15
2018-04-23T21:52:33.181Z,8.38
2018-04-23T21:55:01.392Z,8.05
2018-04-23T21:57:29.690Z,9.77
2018-04-23T21:59:57.774Z,7.82
2018-04-23T22:02:25.965Z,8.82
2018-04-23T22:04:54.147Z,8.55
2018-04-23T22:07:22.351Z,8.75
2018-04-23T22:09:50.447Z,9.20
2018-04-23T22:12:18.631Z,9.40
2018-04-23T22:14:46.587Z,8.43
2018-04-23T22:17:14.763Z,8.48
2018-04-23T22:19:43.119Z,8.25
2018-04-23T22:22:11.404Z,8.98
2018-04-23T22:24:39.702Z,8.77
2018-04-23T22:27:08.002Z,8.25
2018-04-23T22:29:36.308Z,8.57
2018-04-23T22:32:04.614Z,8.20
2018-04-23T22:34:32.727Z,8.05
2018-04-23T22:37:00.883Z,8.95
2018-04-23T22:39:28.983Z,9.00
2018-04-23T22:41:57.182Z,8.40
2018-04-23T22:44:25.285Z,8.15
2018-04-23T22:46:53.452Z,8.70
2018-04-23T22:49:21.759Z,8.15
2018-04-23T22:51:49.956Z,8.27
2018-04-23T22:54:18.041Z,8.57
2018-04-23T22:56:46.248Z,8.02
2018-04-23T22:59:14.460Z,8.15
2018-04-23T23:01:42.731Z,8.45
2018-04-23T23:04:11.031Z,9.77
2018-04-23T23:06:39.121Z,9.07
2018-04-23T23:09:07.507Z,8.63
2018-04-23T23:11:35.806Z,8.35
2018-04-23T23:14:03.925Z,8.10
2018-04-23T23:16:32.098Z,8.35
2018-04-23T23:19:00.201Z,8.20
2018-04-23T23:21:28.379Z,8.00
2018-04-23T23:23:56.466Z,8.05
2018-04-23T23:26:24.667Z,7.37
2018-04-23T23:28:52.859Z,9.07
2018-04-23T23:31:21.060Z,8.10
2018-04-23T23:33:49.160Z,8.05
2018-04-23T23:36:17.565Z,8.35
2018-04-23T23:38:45.847Z,7.90
2018-04-23T23:41:13.986Z,8.25
2018-04-23T23:43:42.136Z,7.97
2018-04-23T23:46:10.438Z,8.30
2018-04-23T23:48:38.718Z,7.28
2018-04-23T23:51:06.831Z,8.75
2018-04-23T23:53:35.737Z,8.07
2018-04-23T23:56:03.817Z,9.13
2018-04-23T23:58:32.006Z,7.90
